Time;durP1;ratioP1;P1;durP2;ratioP2;P2;SDS_P1;SDS_P2;PMS_P1;PMS_P2;Temp;Humidity;BMP_temperature;BMP_pressure;BME280_temperature;BME280_humidity;BME280_pressure;Samples;Min_cycle;Max_cycle;Signal;HPM_P1;HPM_P2
2022/05/26 00:01:48;;;;;;;54.58;31.30;;;;;;;19.25;71.47;95204.22;4992919;28;20033;-75
2022/05/26 00:04:14;;;;;;;57.38;30.98;;;;;;;19.16;71.81;95204.00;4990849;28;20414;-76
2022/05/26 00:06:39;;;;;;;58.63;33.75;;;;;;;19.10;72.26;95190.09;4990071;28;20042;-76
2022/05/26 00:09:05;;;;;;;67.32;34.90;;;;;;;19.09;71.89;95191.16;4990000;28;20049;-75
2022/05/26 00:11:33;;;;;;;49.30;32.20;;;;;;;19.06;71.87;95186.44;4972390;28;20081;-75
2022/05/26 00:14:01;;;;;;;57.35;33.50;;;;;;;19.09;72.05;95183.25;5004174;28;20034;-75
2022/05/26 00:16:27;;;;;;;52.33;32.22;;;;;;;19.09;71.84;95191.16;4989929;28;20030;-75
2022/05/26 00:18:52;;;;;;;55.53;31.45;;;;;;;19.11;71.60;95189.03;4988702;28;20069;-74
2022/05/26 00:21:18;;;;;;;50.35;30.17;;;;;;;19.10;71.18;95195.34;4956418;28;20426;-75
2022/05/26 00:23:43;;;;;;;55.85;32.85;;;;;;;19.08;71.22;95192.22;4972317;28;20491;-75
2022/05/26 00:26:09;;;;;;;58.75;32.42;;;;;;;19.08;71.15;95184.31;4988250;28;20046;-75
2022/05/26 00:28:34;;;;;;;50.97;31.40;;;;;;;19.07;71.44;95177.47;4988483;28;20029;-75
2022/05/26 00:31:00;;;;;;;64.70;32.20;;;;;;;19.07;71.25;95176.69;4989471;28;20030;-75
2022/05/26 00:33:26;;;;;;;49.53;31.27;;;;;;;19.04;71.30;95177.22;4972320;28;20053;-75
2022/05/26 00:35:52;;;;;;;61.47;30.45;;;;;;;19.03;71.52;95176.41;4972266;28;20109;-75
2022/05/26 00:38:17;;;;;;;52.33;31.63;;;;;;;18.99;71.50;95180.69;4988291;28;20760;-75
2022/05/26 00:40:43;;;;;;;48.60;30.60;;;;;;;18.98;71.54;95188.84;4988579;28;20039;-75
2022/05/26 00:43:09;;;;;;;52.70;30.63;;;;;;;18.95;71.41;95187.56;4988271;28;20442;-75
2022/05/26 00:45:37;;;;;;;68.80;35.58;;;;;;;18.95;71.38;95190.19;4971834;28;20080;-76
2022/05/26 00:48:09;;;;;;;65.53;35.65;;;;;;;18.90;71.40;95198.16;4955945;28;20456;-76
2022/05/26 00:50:40;;;;;;;59.20;36.42;;;;;;;18.85;71.96;95200.81;4972321;28;20050;-75
2022/05/26 00:53:41;;;;;;;65.68;36.47;;;;;;;18.84;72.15;95193.97;4972462;28;20042;-75
2022/05/26 00:56:32;;;;;;;69.22;38.42;;;;;;;18.83;71.92;95187.13;4973857;28;20171;-76
2022/05/26 00:59:02;;;;;;;59.40;35.17;;;;;;;18.81;71.51;95184.75;4974363;28;20038;-74
2022/05/26 01:01:28;;;;;;;57.10;33.35;;;;;;;18.78;71.68;95187.94;4988273;28;20031;-76
2022/05/26 01:03:59;;;;;;;58.78;32.33;;;;;;;18.74;71.16;95194.81;4987514;28;20050;-76
2022/05/26 01:06:52;;;;;;;51.25;31.73;;;;;;;18.69;71.40;95200.09;4989446;28;20435;-76
2022/05/26 01:09:20;;;;;;;55.08;32.33;;;;;;;18.63;71.53;95214.38;4989172;28;20442;-76
2022/05/26 01:11:45;;;;;;;54.25;34.17;;;;;;;18.59;71.62;95203.56;4971589;28;20097;-76
2022/05/26 01:14:21;;;;;;;55.05;32.03;;;;;;;18.59;71.63;95208.84;4956002;28;20058;-76
2022/05/26 01:16:47;;;;;;;53.28;31.02;;;;;;;18.59;71.81;95203.56;4971418;28;20030;-76
2022/05/26 01:19:45;;;;;;;57.15;31.67;;;;;;;18.55;72.05;95214.94;4989174;28;20418;-75
2022/05/26 01:22:42;;;;;;;51.60;30.35;;;;;;;18.52;72.01;95213.59;4988190;28;20049;-75
2022/05/26 01:25:32;;;;;;;55.38;31.23;;;;;;;18.48;71.90;95199.41;4990426;28;20046;-76
2022/05/26 01:28:20;;;;;;;60.15;32.85;;;;;;;18.47;71.81;95211.00;4992582;28;20491;-76
2022/05/26 01:31:23;;;;;;;51.83;30.70;;;;;;;18.45;72.31;95212.34;4991965;28;20042;-76
2022/05/26 01:34:14;;;;;;;63.70;32.47;;;;;;;18.42;72.05;95218.16;5007471;28;20050;-76
2022/05/26 01:36:51;;;;;;;58.17;31.67;;;;;;;18.38;72.37;95233.69;4991332;28;20070;-76
2022/05/26 01:39:32;;;;;;;61.63;31.77;;;;;;;18.37;72.39;95232.09;4992152;28;20034;-75
2022/05/26 01:42:12;;;;;;;57.25;32.67;;;;;;;18.35;72.57;95239.50;4992259;28;20042;-75
2022/05/26 01:44:55;;;;;;;51.90;34.05;;;;;;;18.34;73.08;95230.03;4991054;28;20062;-76
2022/05/26 01:47:37;;;;;;;57.95;32.95;;;;;;;18.36;72.92;95224.47;4976666;28;20045;-75
2022/05/26 01:50:30;;;;;;;61.20;34.57;;;;;;;18.37;72.64;95226.84;4990621;28;20046;-75
2022/05/26 01:53:02;;;;;;;53.38;32.83;;;;;;;18.36;72.30;95219.22;4989674;28;20297;-75
2022/05/26 01:55:31;;;;;;;58.95;30.75;;;;;;;18.36;72.57;95220.00;4991629;28;20937;-75
2022/05/26 01:58:38;;;;;;;51.70;31.92;;;;;;;18.36;72.58;95219.22;4990869;28;20410;-75
2022/05/26 02:01:10;;;;;;;54.88;32.60;;;;;;;18.32;72.13;95207.66;4989892;28;20116;-75
2022/05/26 02:03:36;;;;;;;53.88;33.10;;;;;;;18.31;72.45;95214.78;4990200;28;21018;-75
2022/05/26 02:06:12;;;;;;;58.45;32.83;;;;;;;18.26;72.84;95215.59;4974541;28;20046;-75
2022/05/26 02:08:46;;;;;;;64.03;32.13;;;;;;;18.26;72.92;95220.06;4995473;28;20038;-75
2022/05/26 02:11:19;;;;;;;56.47;32.10;;;;;;;18.25;72.30;95203.47;4994584;28;20029;-75
2022/05/26 02:13:48;;;;;;;61.85;34.17;;;;;;;18.27;72.61;95211.09;4993619;28;20038;-75
2022/05/26 02:16:18;;;;;;;77.75;35.20;;;;;;;18.27;72.71;95205.84;4989545;28;20538;-75
2022/05/26 02:18:48;;;;;;;60.83;31.90;;;;;;;18.26;72.12;95214.81;4990256;28;20034;-75
2022/05/26 02:21:49;;;;;;;70.25;32.60;;;;;;;18.26;71.78;95214.81;4989378;28;20042;-75
2022/05/26 02:24:24;;;;;;;59.95;32.38;;;;;;;18.20;71.34;95214.00;4984275;28;20491;-75
2022/05/26 02:26:49;;;;;;;61.10;32.42;;;;;;;18.21;72.01;95220.84;4973926;28;20084;-75
2022/05/26 02:31:59;;;;;;;57.15;31.88;;;;;;;18.16;72.39;95220.88;4991701;28;20057;-75
2022/05/26 02:34:24;;;;;;;63.10;32.10;;;;;;;18.14;72.22;95223.00;4979037;28;20034;-75
2022/05/26 02:36:52;;;;;;;67.15;35.70;;;;;;;18.15;72.91;95221.16;4992217;28;20058;-76
2022/05/26 02:39:17;;;;;;;59.65;32.58;;;;;;;18.17;72.52;95221.66;4976083;28;20049;-76
2022/05/26 02:41:43;;;;;;;69.53;35.00;;;;;;;18.18;73.40;95215.34;4991413;28;20034;-76
2022/05/26 02:44:08;;;;;;;63.05;35.20;;;;;;;18.21;73.51;95215.59;4974259;28;20054;-76
2022/05/26 02:46:57;;;;;;;59.22;34.53;;;;;;;18.25;73.48;95218.50;4973338;28;20030;-76
2022/05/26 02:49:59;;;;;;;62.95;34.30;;;;;;;18.26;73.44;95220.06;4991092;28;20038;-75
2022/05/26 02:52:44;;;;;;;66.88;34.40;;;;;;;18.29;73.26;95222.94;4988151;28;20491;-75
2022/05/26 02:55:15;;;;;;;68.05;35.88;;;;;;;18.32;73.39;95226.09;4990588;28;20046;-76
2022/05/26 02:57:50;;;;;;;65.95;36.33;;;;;;;18.29;73.13;95230.06;4990553;28;20065;-76
2022/05/26 03:00:16;;;;;;;64.30;36.85;;;;;;;18.26;73.26;95238.50;4989859;28;20114;-76
2022/05/26 03:02:50;;;;;;;60.03;36.17;;;;;;;18.26;73.12;95231.38;4988007;28;20022;-75
2022/05/26 03:05:29;;;;;;;69.93;38.25;;;;;;;18.27;73.21;95240.06;4991312;28;20116;-76
2022/05/26 03:07:56;;;;;;;71.35;37.28;;;;;;;18.26;73.25;95241.13;4989616;28;20046;-75
2022/05/26 03:10:25;;;;;;;63.95;36.35;;;;;;;18.27;72.84;95245.34;4973354;28;20707;-76
2022/05/26 03:12:55;;;;;;;63.53;36.30;;;;;;;18.26;72.45;95257.72;4979996;28;20051;-76
2022/05/26 03:15:20;;;;;;;70.82;37.25;;;;;;;18.19;72.30;95256.41;4957396;28;20039;-75
2022/05/26 03:17:46;;;;;;;72.20;35.85;;;;;;;18.19;73.80;95256.41;4973167;28;20049;-76
2022/05/26 03:20:11;;;;;;;62.72;35.38;;;;;;;18.22;73.74;95261.94;4957484;28;20026;-76
2022/05/26 03:22:38;;;;;;;58.00;35.33;;;;;;;18.27;74.03;95261.13;4971866;28;20044;-76
2022/05/26 03:25:04;;;;;;;66.50;36.28;;;;;;;18.33;73.73;95254.00;4989786;28;20038;-76
2022/05/26 03:27:29;;;;;;;65.75;33.28;;;;;;;18.36;72.97;95258.72;4989959;28;20038;-76
2022/05/26 03:29:55;;;;;;;58.33;35.22;;;;;;;18.40;73.63;95263.19;4990431;28;20022;-75
2022/05/26 03:32:21;;;;;;;61.42;33.65;;;;;;;18.43;73.01;95257.38;4990336;28;20575;-76
2022/05/26 03:42:58;;;;;;;75.05;42.83;;;;;;;18.61;70.33;95258.63;4990466;28;20108;-75
2022/05/26 03:45:23;;;;;;;77.03;40.03;;;;;;;18.69;70.07;95267.81;4989660;28;20530;-75
2022/05/26 03:47:49;;;;;;;73.18;37.45;;;;;;;18.76;70.08;95278.88;4988799;28;20034;-76
2022/05/26 03:50:15;;;;;;;72.75;36.53;;;;;;;18.86;70.05;95274.31;4987698;28;20042;-76
2022/05/26 03:52:40;;;;;;;74.28;35.58;;;;;;;19.00;69.82;95282.41;4988709;28;20566;-75
2022/05/26 03:55:06;;;;;;;76.07;37.08;;;;;;;19.09;69.64;95282.63;4989051;28;20030;-75
2022/05/26 03:57:31;;;;;;;76.10;36.20;;;;;;;19.16;69.08;95285.72;4989738;28;20038;-76
2022/05/26 03:59:57;;;;;;;85.53;36.70;;;;;;;19.31;68.92;95298.81;4988472;28;20081;-75
2022/05/26 04:02:23;;;;;;;97.18;35.63;;;;;;;19.42;68.29;95307.44;4973195;28;20168;-75
2022/05/26 04:04:48;;;;;;;66.53;35.03;;;;;;;19.53;68.38;95295.78;4988705;28;20045;-76
2022/05/26 04:07:14;;;;;;;67.47;36.25;;;;;;;19.68;67.54;95298.28;4990043;28;20049;-76
2022/05/26 04:09:42;;;;;;;71.68;34.80;;;;;;;19.83;66.71;95293.94;4972070;28;20066;-76
2022/05/26 04:12:11;;;;;;;62.80;33.70;;;;;;;19.94;66.50;95290.94;4988870;28;20104;-77
2022/05/26 04:14:36;;;;;;;74.22;35.50;;;;;;;20.11;65.92;95298.44;4972501;28;20382;-75
2022/05/26 04:17:02;;;;;;;92.35;36.53;;;;;;;20.26;65.08;95298.28;4988667;28;20035;-75
2022/05/26 04:19:28;;;;;;;81.28;34.85;;;;;;;20.45;64.84;95292.28;4972824;28;20047;-74
2022/05/26 04:24:37;;;;;;;76.82;33.85;;;;;;;20.92;63.25;95302.03;4989471;28;20580;-76
2022/05/26 04:27:04;;;;;;;100.65;34.55;;;;;;;21.12;62.57;95308.88;4988626;28;20038;-76
2022/05/26 04:29:29;;;;;;;68.55;32.83;;;;;;;21.43;61.65;95307.41;4989191;28;20030;-76
2022/05/26 04:31:55;;;;;;;76.68;31.77;;;;;;;21.84;61.22;95304.13;4973242;28;20034;-74
2022/05/26 04:34:20;;;;;;;62.38;31.45;;;;;;;22.23;59.48;95310.91;4989763;28;20514;-74
2022/05/26 04:36:46;;;;;;;64.03;31.92;;;;;;;22.72;57.84;95316.31;4989664;28;20042;-75
2022/05/26 04:39:11;;;;;;;60.47;29.90;;;;;;;23.16;56.42;95312.25;4989806;28;20030;-74
2022/05/26 04:41:37;;;;;;;63.42;30.35;;;;;;;23.75;54.80;95313.03;4988658;28;20089;-74
2022/05/26 04:44:02;;;;;;;58.83;29.75;;;;;;;24.67;52.53;95310.69;4988937;28;20042;-74
2022/05/26 04:46:28;;;;;;;47.38;28.80;;;;;;;25.54;49.88;95307.06;5003862;28;20050;-76
2022/05/26 04:48:53;;;;;;;55.50;27.63;;;;;;;26.39;46.94;95299.28;4997153;28;20136;-75
2022/05/26 04:51:19;;;;;;;60.83;26.58;;;;;;;27.17;45.44;95291.66;5003857;28;20027;-75
2022/05/26 04:53:45;;;;;;;46.50;26.83;;;;;;;27.89;43.14;95303.00;4972307;28;20038;-75
2022/05/26 04:56:10;;;;;;;47.40;26.92;;;;;;;28.69;41.86;95303.38;4989835;28;20038;-75
2022/05/26 04:58:36;;;;;;;52.80;25.98;;;;;;;29.35;40.27;95298.84;4972462;28;20525;-77
2022/05/26 05:01:14;;;;;;;48.65;24.92;;;;;;;30.42;38.26;95302.47;4990850;28;20507;-76
2022/05/26 05:03:40;;;;;;;49.35;25.63;;;;;;;31.42;36.54;95302.91;4992465;28;20039;-76
2022/05/26 05:06:06;;;;;;;54.85;24.52;;;;;;;32.51;33.56;95305.31;4975739;28;20425;-76
2022/05/26 05:08:31;;;;;;;47.13;23.67;;;;;;;33.73;31.67;95303.22;4993981;28;20038;-76
2022/05/26 05:10:57;;;;;;;37.30;22.05;;;;;;;34.95;29.54;95303.22;5002535;28;20034;-76
2022/05/26 05:13:23;;;;;;;34.95;19.63;;;;;;;36.11;27.53;95315.00;4996196;28;20046;-76
2022/05/26 05:15:54;;;;;;;35.83;20.20;;;;;;;37.17;25.95;95313.50;4973644;28;20061;-78
2022/05/26 05:18:20;;;;;;;34.85;18.92;;;;;;;38.04;24.50;95310.88;4991635;28;20042;-77
2022/05/26 05:20:45;;;;;;;34.40;19.60;;;;;;;38.88;23.30;95312.66;4992987;28;20100;-75
2022/05/26 05:23:13;;;;;;;44.55;19.77;;;;;;;39.64;22.77;95318.91;4992005;28;20043;-77
2022/05/26 05:25:40;;;;;;;52.08;19.77;;;;;;;40.31;21.53;95318.03;4991727;28;20026;-76
2022/05/26 05:28:11;;;;;;;41.72;19.27;;;;;;;41.00;20.73;95310.34;4991651;28;20042;-77
2022/05/26 05:30:42;;;;;;;38.97;18.85;;;;;;;41.75;20.17;95317.16;4974378;28;20105;-76
2022/05/26 05:33:08;;;;;;;50.67;18.75;;;;;;;42.48;19.17;95314.00;4992138;28;20038;-77
2022/05/26 05:35:41;;;;;;;28.23;18.45;;;;;;;42.92;18.21;95325.50;4975684;28;20030;-77
2022/05/26 05:38:07;;;;;;;35.10;18.00;;;;;;;43.09;18.57;95328.97;4992352;28;20033;-77
2022/05/26 05:40:32;;;;;;;38.83;19.55;;;;;;;43.38;17.85;95331.75;4976689;28;20026;-76
2022/05/26 05:42:58;;;;;;;39.30;17.90;;;;;;;42.68;18.76;95327.63;4976511;28;20065;-78
2022/05/26 05:45:23;;;;;;;38.53;17.88;;;;;;;41.11;19.94;95334.72;4991091;28;20038;-77
2022/05/26 05:47:49;;;;;;;33.20;17.45;;;;;;;39.64;21.41;95341.47;4990547;28;20121;-76
2022/05/26 05:50:15;;;;;;;35.38;19.17;;;;;;;38.24;23.34;95340.28;4995871;28;20100;-78
2022/05/26 05:52:40;;;;;;;38.75;20.60;;;;;;;36.60;25.84;95351.47;4994747;28;20034;-76
2022/05/26 05:55:06;;;;;;;45.92;20.77;;;;;;;35.31;27.39;95349.41;4993199;28;20061;-77
2022/05/26 05:57:31;;;;;;;42.28;21.92;;;;;;;33.51;29.83;95355.34;4991497;28;20105;-76
2022/05/26 05:59:57;;;;;;;45.10;22.42;;;;;;;32.24;32.59;95356.38;4991990;28;20031;-78
2022/05/26 06:02:23;;;;;;;43.45;22.20;;;;;;;31.15;34.30;95349.50;4975065;28;20062;-78
2022/05/26 06:04:49;;;;;;;45.45;22.55;;;;;;;30.23;35.32;95359.50;4992319;28;20056;-78
2022/05/26 06:07:16;;;;;;;47.60;22.58;;;;;;;29.66;36.61;95366.00;4989838;28;20121;-78
2022/05/26 06:09:42;;;;;;;39.15;22.42;;;;;;;28.72;38.08;95366.16;4973076;28;20038;-77
2022/05/26 06:12:14;;;;;;;40.67;21.65;;;;;;;28.01;39.91;95367.19;5006381;28;20022;-79
2022/05/26 06:14:39;;;;;;;;;;;;;;;27.54;40.42;95371.19;5001451;28;20046;-77
2022/05/26 06:17:07;;;;;;;50.38;22.30;;;;;;;27.22;41.29;95373.44;4992748;28;19918;-78
2022/05/26 06:19:33;;;;;;;50.78;22.13;;;;;;;27.11;41.91;95374.91;4991817;28;20539;-77
2022/05/26 06:21:58;;;;;;;41.42;21.83;;;;;;;27.14;42.60;95379.59;4990413;28;20486;-78
2022/05/26 06:24:25;;;;;;;53.10;22.30;;;;;;;27.12;42.32;95373.81;4992211;28;20048;-77
2022/05/26 06:26:50;;;;;;;52.58;22.63;;;;;;;27.21;42.74;95372.66;4991736;28;20041;-77
2022/05/26 06:37:28;;;;;;;64.10;20.90;;;;;;;26.60;44.35;95395.34;4991359;28;20121;-77
2022/05/26 06:39:55;;;;;;;42.72;19.65;;;;;;;26.89;43.31;95392.75;4989648;28;20121;-78
2022/05/26 06:42:23;;;;;;;48.00;20.05;;;;;;;27.56;41.78;95395.69;4993024;28;20031;-78
2022/05/26 06:44:49;;;;;;;43.60;18.90;;;;;;;28.96;39.08;95392.97;4995276;28;20117;-79
2022/05/26 06:47:17;;;;;;;53.38;18.52;;;;;;;30.64;36.44;95390.50;4995783;28;20038;-79
2022/05/26 06:49:42;;;;;;;35.65;17.45;;;;;;;32.37;32.94;95396.59;4994454;28;20045;-79
2022/05/26 06:52:08;;;;;;;41.38;16.23;;;;;;;33.43;30.29;95393.00;4995682;28;20041;-78
2022/05/26 06:54:36;;;;;;;31.75;15.65;;;;;;;33.66;30.10;95381.34;5010310;28;20034;-79
2022/05/26 06:57:03;;;;;;;45.08;14.88;;;;;;;33.88;30.08;95385.91;4994665;28;20116;-78
2022/05/26 06:59:28;;;;;;;35.80;13.55;;;;;;;34.27;27.84;95386.34;4962010;28;20037;-79
2022/05/26 07:01:54;;;;;;;31.30;12.57;;;;;;;34.64;28.13;95388.25;4978988;28;20042;-79
2022/05/26 07:04:19;;;;;;;44.00;13.43;;;;;;;34.89;27.26;95388.53;4979215;28;20042;-79
2022/05/26 07:06:49;;;;;;;29.33;11.35;;;;;;;35.23;27.60;95396.50;4980095;28;20157;-79
2022/05/26 07:09:15;;;;;;;27.35;10.73;;;;;;;35.52;26.65;95395.56;4996086;28;20485;-80
2022/05/26 07:11:40;;;;;;;28.08;9.30;;;;;;;35.75;26.07;95393.34;4994413;28;20045;-78
2022/05/26 07:14:07;;;;;;;27.30;9.80;;;;;;;35.89;24.46;95389.19;4978699;28;20046;-79
2022/05/26 07:16:33;;;;;;;29.48;10.07;;;;;;;35.95;24.34;95393.06;4995797;28;20494;-78
2022/05/26 07:18:58;;;;;;;23.70;8.48;;;;;;;35.86;23.73;95387.25;5017442;28;20053;-79
2022/05/26 07:21:24;;;;;;;31.17;10.98;;;;;;;35.72;23.83;95386.00;5015188;28;20038;-78
2022/05/26 07:23:49;;;;;;;27.58;9.30;;;;;;;35.58;24.13;95385.13;4966555;28;20030;-79
2022/05/26 07:26:16;;;;;;;22.80;7.05;;;;;;;35.32;23.92;95380.72;4996670;28;20034;-79
2022/05/26 07:28:41;;;;;;;22.60;6.53;;;;;;;35.20;23.82;95374.47;5011634;28;20034;-79
2022/05/26 07:31:08;;;;;;;20.60;5.35;;;;;;;34.94;23.22;95384.69;4996110;28;20120;-78
2022/05/26 07:33:33;;;;;;;18.05;5.05;;;;;;;34.95;22.51;95386.25;4978757;28;20030;-79
2022/05/26 07:35:59;;;;;;;15.75;4.85;;;;;;;34.95;23.12;95378.91;5004755;28;20407;-79
2022/05/26 07:41:22;;;;;;;27.65;6.35;;;;;;;34.83;23.25;95373.78;4995232;28;20050;-79
2022/05/26 07:43:57;;;;;;;30.00;5.97;;;;;;;34.78;23.81;95380.28;5012346;28;20114;-78
2022/05/26 07:46:23;;;;;;;23.52;5.13;;;;;;;34.69;23.77;95384.47;5028196;28;20046;-78
2022/05/26 07:48:49;;;;;;;19.50;5.68;;;;;;;34.63;24.19;95385.94;4983190;28;20027;-78
2022/05/26 07:51:19;;;;;;;21.52;6.00;;;;;;;34.52;23.99;95378.53;4993405;28;20073;-79
2022/05/26 07:53:45;;;;;;;12.68;4.28;;;;;;;34.49;23.25;95387.34;4972841;28;20045;-79
2022/05/26 07:56:10;;;;;;;11.38;4.85;;;;;;;34.22;22.59;95389.38;4980422;28;20062;-79
2022/05/26 07:58:36;;;;;;;16.08;3.95;;;;;;;33.73;23.76;95392.25;5002480;28;20027;-79
2022/05/26 08:01:03;;;;;;;23.90;8.15;;;;;;;33.45;23.89;95389.16;4996605;28;20039;-79
2022/05/26 08:03:29;;;;;;;15.43;4.68;;;;;;;33.27;24.24;95395.06;4981564;28;20034;-78
2022/05/26 08:05:54;;;;;;;18.35;4.22;;;;;;;32.81;24.06;95395.09;4979564;28;20133;-78
2022/05/26 08:08:20;;;;;;;25.20;5.13;;;;;;;32.57;24.47;95400.06;4999052;28;20042;-77
2022/05/26 08:10:46;;;;;;;16.73;4.40;;;;;;;32.47;25.39;95401.41;4998190;28;20038;-79
2022/05/26 08:13:11;;;;;;;20.42;4.40;;;;;;;32.34;26.17;95397.31;5019003;28;20039;-79
2022/05/26 08:15:37;;;;;;;24.25;4.68;;;;;;;32.30;26.42;95394.56;4994856;28;20034;-79
2022/05/26 08:18:02;;;;;;;28.50;4.85;;;;;;;32.35;26.57;95398.88;4993368;28;20929;-79
2022/05/26 08:20:28;;;;;;;30.10;4.88;;;;;;;32.36;26.06;95400.44;4984278;28;20106;-78
2022/05/26 08:22:53;;;;;;;14.05;4.10;;;;;;;32.23;26.30;95397.88;4991732;28;20031;-78
2022/05/26 08:25:19;;;;;;;25.98;6.43;;;;;;;31.89;26.81;95394.16;4990597;28;20030;-78
2022/05/26 08:27:45;;;;;;;19.88;4.63;;;;;;;31.90;27.28;95405.69;4974486;28;20042;-78
2022/05/26 08:30:11;;;;;;;29.88;5.43;;;;;;;31.91;27.69;95401.88;4989430;28;20046;-78
2022/05/26 08:32:36;;;;;;;33.35;6.47;;;;;;;31.77;28.03;95412.34;5005856;28;20030;-78
2022/05/26 08:35:07;;;;;;;15.95;4.72;;;;;;;31.70;27.29;95407.53;4999450;28;20422;-78
2022/05/26 08:37:33;;;;;;;10.82;5.07;;;;;;;31.63;27.60;95408.19;5007738;28;20098;-78
2022/05/26 08:39:58;;;;;;;27.05;7.18;;;;;;;31.48;28.18;95408.22;5019397;28;20550;-77
2022/05/26 08:42:31;;;;;;;10.13;4.85;;;;;;;31.22;27.79;95411.47;4992577;28;20034;-78
2022/05/26 08:45:21;;;;;;;21.38;4.47;;;;;;;31.04;28.77;95403.75;5010148;28;20027;-77
2022/05/26 08:47:48;;;;;;;23.13;4.68;;;;;;;30.93;28.99;95413.47;4970574;28;20054;-77
2022/05/26 08:50:19;;;;;;;10.02;3.50;;;;;;;30.78;28.67;95416.94;5000511;28;20034;-79
2022/05/26 08:52:49;;;;;;;27.77;6.57;;;;;;;30.73;30.86;95414.50;4992322;28;20165;-76
2022/05/26 08:55:23;;;;;;;20.55;5.13;;;;;;;30.62;30.44;95414.25;4991264;28;20035;-74
2022/05/26 08:58:14;;;;;;;18.75;6.00;;;;;;;30.48;31.21;95420.00;4991716;28;20062;-75
2022/05/26 09:00:40;;;;;;;24.05;6.40;;;;;;;30.42;32.19;95420.56;4992741;28;20038;-75
2022/05/26 09:03:21;;;;;;;24.85;5.85;;;;;;;30.40;31.54;95407.50;4993259;28;20525;-74
2022/05/26 09:05:46;;;;;;;30.88;5.90;;;;;;;30.39;31.48;95413.97;4993174;28;20030;-75
2022/05/26 09:14:02;;;;;;;18.55;5.30;;;;;;;30.32;32.68;95402.28;4992786;28;20118;-75
2022/05/26 09:16:29;;;;;;;18.40;8.32;;;;;;;30.33;31.33;95401.16;4991509;28;20110;-75
2022/05/26 09:19:13;;;;;;;20.92;4.80;;;;;;;30.23;30.57;95405.13;4998839;28;20497;-75
2022/05/26 09:21:39;;;;;;;29.98;5.03;;;;;;;30.16;31.92;95402.25;4992221;28;20045;-74
2022/05/26 09:24:18;;;;;;;12.75;4.97;;;;;;;30.08;32.27;95390.53;4999239;28;20078;-75
2022/05/26 09:26:48;;;;;;;18.90;5.75;;;;;;;30.04;32.67;95404.94;5016004;28;20019;-74
2022/05/26 09:29:15;;;;;;;16.27;6.35;;;;;;;29.98;31.98;95406.31;5008030;28;20447;-75
2022/05/26 09:31:46;;;;;;;23.10;5.93;;;;;;;29.88;32.90;95407.56;5015662;28;20030;-73
2022/05/26 09:34:15;;;;;;;15.63;5.68;;;;;;;29.82;32.66;95411.63;5015012;28;20065;-73
2022/05/26 09:36:44;;;;;;;20.35;4.55;;;;;;;29.67;31.90;95407.75;4992350;28;20042;-73
2022/05/26 09:39:10;;;;;;;15.82;5.10;;;;;;;29.59;32.41;95411.34;4991245;28;20038;-73
2022/05/26 09:41:43;;;;;;;22.48;5.82;;;;;;;29.61;32.87;95409.09;5015162;28;20045;-75
2022/05/26 09:44:31;;;;;;;17.95;5.38;;;;;;;29.59;33.39;95408.66;5006729;28;20479;-73
2022/05/26 09:46:58;;;;;;;29.65;6.50;;;;;;;29.56;34.86;95406.66;5014241;28;20554;-73
2022/05/26 09:49:25;;;;;;;18.80;5.38;;;;;;;29.57;32.75;95397.50;4990657;28;20073;-74
2022/05/26 09:51:51;;;;;;;15.73;5.18;;;;;;;29.60;34.09;95402.16;5007877;28;20038;-74
2022/05/26 09:54:25;;;;;;;20.75;5.80;;;;;;;29.56;34.12;95401.28;4981942;28;20046;-74
2022/05/26 09:56:51;;;;;;;13.40;5.70;;;;;;;29.55;34.56;95405.09;5014740;28;20061;-73
2022/05/26 09:59:28;;;;;;;11.45;4.18;;;;;;;29.52;33.00;95398.53;5017523;28;20077;-73
2022/05/26 10:02:07;;;;;;;17.38;4.88;;;;;;;29.47;33.92;95387.25;4992702;28;20030;-74
2022/05/26 10:04:54;;;;;;;12.68;4.20;;;;;;;29.46;32.18;95393.75;5006755;28;20112;-74
2022/05/26 10:07:25;;;;;;;12.18;3.90;;;;;;;29.33;32.35;95389.47;4991341;28;20050;-74
2022/05/26 10:09:54;;;;;;;14.10;5.00;;;;;;;29.27;32.39;95395.03;4991401;28;20061;-74
2022/05/26 10:12:35;;;;;;;16.90;4.90;;;;;;;29.28;32.10;95385.91;5006295;28;20038;-74
2022/05/26 10:15:34;;;;;;;9.90;5.35;;;;;;;29.25;31.41;95396.50;4992050;28;20122;-74
2022/05/26 10:18:03;;;;;;;16.05;3.80;;;;;;;29.18;30.23;95391.72;5014423;28;20038;-74
2022/05/26 10:20:38;;;;;;;11.13;4.63;;;;;;;29.21;33.09;95391.03;4992081;28;20037;-75
2022/05/26 10:23:06;;;;;;;16.83;4.75;;;;;;;29.14;31.80;95382.81;5007028;28;20057;-74
2022/05/26 10:25:35;;;;;;;15.00;3.67;;;;;;;28.97;28.17;95397.22;4992777;28;20156;-74
2022/05/26 10:28:19;;;;;;;12.88;3.75;;;;;;;28.87;29.38;95394.19;4992124;28;20046;-74
2022/05/26 10:31:14;;;;;;;21.55;3.78;;;;;;;28.74;26.50;95397.94;4996364;28;20034;-74
2022/05/26 10:34:14;;;;;;;16.90;3.40;;;;;;;28.84;28.78;95397.50;5008037;28;20486;-74
2022/05/26 10:36:58;;;;;;;14.45;4.75;;;;;;;28.88;28.84;95393.06;4991683;28;20545;-75
2022/05/26 10:39:26;;;;;;;10.48;2.97;;;;;;;28.81;29.11;95400.84;4991566;28;20030;-75
2022/05/26 10:42:14;;;;;;;13.30;3.67;;;;;;;28.75;27.95;95394.91;4991080;28;20057;-77
2022/05/26 10:44:42;;;;;;;11.48;3.97;;;;;;;28.76;27.66;95393.00;4977223;28;20534;-77
2022/05/26 10:47:19;;;;;;;19.30;3.90;;;;;;;28.82;27.38;95389.03;4990498;28;20027;-74
2022/05/26 10:50:00;;;;;;;11.85;3.80;;;;;;;28.82;29.91;95389.81;4991134;28;20046;-74
2022/05/26 10:52:32;;;;;;;10.85;3.45;;;;;;;28.76;29.68;95396.47;5014368;28;20037;-74
2022/05/26 10:55:18;;;;;;;10.52;4.07;;;;;;;28.72;31.20;95384.88;4949540;28;20050;-75
2022/05/26 10:57:53;;;;;;;24.48;4.35;;;;;;;28.67;32.54;95377.84;4975463;28;20510;-74
2022/05/26 11:00:21;;;;;;;17.30;4.05;;;;;;;28.66;32.28;95368.28;4991141;28;20109;-75
2022/05/26 11:03:05;;;;;;;13.35;4.50;;;;;;;28.59;33.56;95375.28;4973693;28;20602;-74
2022/05/26 11:05:50;;;;;;;17.55;5.55;;;;;;;28.55;32.24;95375.16;4991332;28;20036;-74
2022/05/26 11:08:48;;;;;;;9.35;4.03;;;;;;;28.55;33.36;95375.16;4990304;28;20491;-74
2022/05/26 11:11:32;;;;;;;20.48;4.70;;;;;;;28.43;32.46;95377.81;4990539;28;20530;-74
2022/05/26 11:14:06;;;;;;;8.35;3.70;;;;;;;28.41;32.47;95369.34;4991135;28;20028;-74
2022/05/26 11:19:49;;;;;;;12.77;3.88;;;;;;;28.30;29.98;95370.84;5009828;28;20041;-74
2022/05/26 11:22:15;;;;;;;16.42;3.58;;;;;;;28.28;31.31;95375.75;5013178;28;20049;-74
2022/05/26 11:24:45;;;;;;;12.93;4.78;;;;;;;28.27;31.99;95376.88;4997727;28;20113;-74
2022/05/26 11:27:13;;;;;;;14.98;3.45;;;;;;;28.30;31.98;95362.84;4998355;28;20053;-75
2022/05/26 11:29:40;;;;;;;8.10;3.15;;;;;;;28.33;31.17;95359.53;5014715;28;20097;-75
2022/05/26 11:37:40;;;;;;;13.93;4.15;;;;;;;28.47;31.60;95346.59;4989983;28;20185;-76
2022/05/26 11:40:07;;;;;;;13.32;3.65;;;;;;;28.53;32.01;95350.63;4988951;28;20497;-76
2022/05/26 11:42:54;;;;;;;21.13;3.65;;;;;;;28.61;30.36;95336.34;4989873;28;20038;-73
2022/05/26 11:45:29;;;;;;;10.05;2.97;;;;;;;28.68;30.33;95339.28;4986539;28;20054;-76
2022/05/26 11:48:32;;;;;;;11.13;3.30;;;;;;;28.86;29.71;95341.72;4989380;28;20517;-76
2022/05/26 11:51:25;;;;;;;12.63;3.55;;;;;;;28.96;31.54;95341.28;5011396;28;20034;-76
2022/05/26 11:53:51;;;;;;;19.00;3.42;;;;;;;29.05;30.83;95350.00;5004277;28;20124;-76
2022/05/26 11:56:40;;;;;;;17.38;4.15;;;;;;;29.19;29.98;95344.28;4989959;28;20046;-76
2022/05/26 11:59:21;;;;;;;11.50;3.53;;;;;;;29.20;30.71;95357.34;4989500;28;20512;-76
2022/05/26 12:02:26;;;;;;;15.32;3.53;;;;;;;29.24;31.08;95357.44;5014911;28;20030;-76
2022/05/26 12:04:51;;;;;;;5.78;3.30;;;;;;;29.29;31.73;95362.59;4989921;28;20054;-74
2022/05/26 12:07:23;;;;;;;17.52;3.75;;;;;;;29.31;31.98;95362.25;4971931;28;20029;-76
2022/05/26 12:09:50;;;;;;;10.93;4.05;;;;;;;29.44;32.13;95366.44;4987795;28;20038;-75
2022/05/26 12:12:16;;;;;;;12.52;3.50;;;;;;;29.36;31.36;95359.34;5005247;28;20425;-75
2022/05/26 12:14:47;;;;;;;15.45;3.97;;;;;;;29.32;32.22;95356.56;4989941;28;20487;-75
2022/05/26 12:17:42;;;;;;;9.27;3.42;;;;;;;29.22;31.62;95352.44;4990011;28;20506;-75
2022/05/26 12:20:10;;;;;;;9.55;3.28;;;;;;;29.15;31.10;95365.63;5004915;28;20037;-75